Huntsville, Utah
Current Conditions -  °F | °C
As of 5:53 AM on Tuesday 21 Oct 2014 (Local Time) from KOGD Reporting Station
Broken Clouds Broken Clouds  
Wind Chill: 67°   Ceiling: 11000
Heat Index: 67°   Visibility: 10mi
Dew Point: 38°   Wind: 22mph
Humidity: 34%   Direction: 160°SSE
Pressure: 29.84"   Gusts: 41mph
Location:  41.26°N, 111.77°W
Report Text: KOGD 211153Z 16019G36KT 10SM FEW055 SCT090 BKN110 19/03 A2984 RMK AO2 PK WND 17036/1145 SLP050 T01940033 10200 20156 56009
Loading
Personal Weather Stations






























Interactive Weather Map
Tropical Storm Tracking
New forecast layout! Learn more

10-Day Weather Forecast

Advertisements
Track Severe Weather on mobile